Time;durP1;ratioP1;P1;durP2;ratioP2;P2;SDS_P1;SDS_P2;PMS_P1;PMS_P2;Temp;Humidity;BMP_temperature;BMP_pressure;BME280_temperature;BME280_humidity;BME280_pressure;Samples;Min_cycle;Max_cycle;Signal;HPM_P1;HPM_P2
2022/09/16 00:00:52;;;;;;;7.47;4.63;;;;;;;8.02;100.00;92609.13;2135289;27;20030;-68
2022/09/16 00:01:53;;;;;;;13.23;4.25;;;;;;;8.03;100.00;92608.00;2135563;27;20047;-68
2022/09/16 00:02:54;;;;;;;9.23;4.78;;;;;;;8.02;100.00;92603.81;2135575;27;20046;-67
2022/09/16 00:03:56;;;;;;;7.78;4.15;;;;;;;8.04;100.00;92606.81;2135806;27;20035;-68
2022/09/16 00:04:57;;;;;;;8.90;4.15;;;;;;;8.04;100.00;92608.75;2135528;27;20117;-68
2022/09/16 00:05:58;;;;;;;5.35;4.03;;;;;;;7.95;100.00;92608.56;2134907;27;20034;-69
2022/09/16 00:06:59;;;;;;;5.38;4.47;;;;;;;8.00;100.00;92613.38;2135664;27;20030;-68
2022/09/16 00:08:00;;;;;;;5.47;4.45;;;;;;;7.94;100.00;92601.72;2135486;27;20471;-69
2022/09/16 00:09:01;;;;;;;9.80;4.30;;;;;;;7.97;100.00;92606.22;2126487;27;20116;-68
2022/09/16 00:10:04;;;;;;;4.82;4.32;;;;;;;7.96;100.00;92602.81;2126288;27;20026;-68
2022/09/16 00:11:05;;;;;;;8.07;4.32;;;;;;;7.97;100.00;92609.63;2134547;27;20046;-68
2022/09/16 00:12:07;;;;;;;13.38;4.60;;;;;;;8.01;100.00;92602.31;2136390;27;20011;-68
2022/09/16 00:13:09;;;;;;;9.05;4.40;;;;;;;7.97;100.00;92601.63;2135375;27;20046;-68
2022/09/16 00:14:10;;;;;;;5.43;4.25;;;;;;;7.95;100.00;92608.56;2135331;27;20031;-68
2022/09/16 00:15:11;;;;;;;5.25;4.50;;;;;;;8.02;100.00;92598.50;2135505;27;20033;-69
2022/09/16 00:16:18;;;;;;;7.13;4.63;;;;;;;7.91;100.00;92599.88;2134265;27;20134;-68
2022/09/16 00:17:20;;;;;;;7.22;4.20;;;;;;;7.96;100.00;92597.47;2135392;27;20052;-70
2022/09/16 00:18:21;;;;;;;4.65;4.15;;;;;;;7.97;100.00;92596.31;2132665;27;20031;-68
2022/09/16 00:19:22;;;;;;;7.22;4.50;;;;;;;8.00;100.00;92600.81;2135489;27;20030;-69
2022/09/16 00:20:23;;;;;;;8.90;4.28;;;;;;;8.00;100.00;92598.16;2135295;27;20525;-68
2022/09/16 00:21:25;;;;;;;6.70;4.57;;;;;;;7.94;100.00;92596.38;2135187;27;20027;-68
2022/09/16 00:22:28;;;;;;;4.47;4.07;;;;;;;7.83;100.00;92599.28;2135232;27;20057;-68
2022/09/16 00:23:29;;;;;;;8.27;3.80;;;;;;;7.89;100.00;92592.28;2135436;27;20031;-69
2022/09/16 00:24:30;;;;;;;4.55;4.15;;;;;;;7.90;100.00;92593.81;2126076;27;20035;-70
2022/09/16 00:25:31;;;;;;;6.38;4.63;;;;;;;7.90;100.00;92591.16;2126313;27;20027;-68
2022/09/16 00:26:33;;;;;;;6.40;4.18;;;;;;;7.78;100.00;92594.44;2134484;27;20046;-68
2022/09/16 00:27:34;;;;;;;5.05;4.07;;;;;;;7.81;100.00;92594.38;2135166;27;20078;-68
2022/09/16 00:28:35;;;;;;;6.20;4.28;;;;;;;7.85;100.00;92594.28;2132053;27;20076;-69
2022/09/16 00:29:36;;;;;;;7.47;4.70;;;;;;;7.80;100.00;92589.44;2135397;27;20694;-68
2022/09/16 00:30:37;;;;;;;5.95;4.57;;;;;;;7.72;100.00;92594.13;2135350;27;20023;-70
2022/09/16 00:31:38;;;;;;;8.70;3.97;;;;;;;7.73;100.00;92598.31;2125865;27;20145;-69
2022/09/16 00:32:39;;;;;;;5.18;4.40;;;;;;;7.66;100.00;92595.03;2125509;27;20018;-69
2022/09/16 00:33:40;;;;;;;6.63;4.28;;;;;;;7.74;100.00;92593.75;2135347;27;20026;-70
2022/09/16 00:34:41;;;;;;;6.75;4.20;;;;;;;7.76;100.00;92594.81;2135338;27;20014;-68
2022/09/16 00:35:42;;;;;;;8.18;4.60;;;;;;;7.79;100.00;92590.59;2131279;27;20367;-68
2022/09/16 00:36:43;;;;;;;6.20;4.28;;;;;;;7.82;100.00;92592.47;2135378;27;20040;-69
2022/09/16 00:37:44;;;;;;;3.97;3.67;;;;;;;7.81;100.00;92594.38;2138383;27;20451;-68
2022/09/16 00:38:50;;;;;;;5.63;4.18;;;;;;;7.77;100.00;92587.59;2124967;27;20026;-70
2022/09/16 00:39:51;;;;;;;6.35;4.05;;;;;;;7.79;100.00;92603.91;2126910;27;20031;-69
2022/09/16 00:40:52;;;;;;;5.43;4.13;;;;;;;7.76;100.00;92597.47;2126022;27;20022;-69
2022/09/16 00:41:55;;;;;;;11.60;4.65;;;;;;;7.85;100.00;92599.59;2126064;27;20026;-70
2022/09/16 00:42:56;;;;;;;7.50;3.85;;;;;;;7.66;100.00;92598.44;2134205;27;20802;-69
2022/09/16 00:44:03;;;;;;;4.13;3.72;;;;;;;7.79;100.00;92611.88;2135387;27;20038;-68
2022/09/16 00:45:17;;;;;;;11.65;4.22;;;;;;;7.79;100.00;92607.31;2135102;27;20023;-70
2022/09/16 00:46:24;;;;;;;8.77;4.25;;;;;;;7.76;100.00;92608.13;2135203;27;20019;-67
2022/09/16 00:47:35;;;;;;;4.90;3.92;;;;;;;7.69;100.00;92610.19;2135099;27;20018;-67
2022/09/16 00:48:36;;;;;;;4.25;3.85;;;;;;;7.69;100.00;92610.19;2134817;27;20456;-68
2022/09/16 00:49:37;;;;;;;9.10;4.50;;;;;;;7.64;100.00;92606.09;2139076;27;20070;-68
2022/09/16 00:50:47;;;;;;;5.85;4.32;;;;;;;7.69;100.00;92615.50;2135145;27;20732;-70
2022/09/16 00:51:52;;;;;;;7.47;3.90;;;;;;;7.74;100.00;92607.81;2135294;27;20034;-69
2022/09/16 00:52:55;;;;;;;5.82;4.25;;;;;;;7.74;100.00;92609.72;2136304;27;20038;-68
2022/09/16 00:54:02;;;;;;;5.93;3.97;;;;;;;7.75;100.00;92611.22;2135105;27;20033;-68
2022/09/16 00:55:07;;;;;;;4.18;3.70;;;;;;;7.74;100.00;92604.38;2135094;27;20096;-68
2022/09/16 00:56:10;;;;;;;7.35;3.95;;;;;;;7.76;100.00;92604.72;2135221;27;20033;-70
2022/09/16 00:57:13;;;;;;;5.22;4.20;;;;;;;7.71;100.00;92600.63;2135079;27;20374;-68
2022/09/16 00:58:37;;;;;;;6.57;3.97;;;;;;;7.75;100.00;92603.97;2134036;27;20037;-71
2022/09/16 00:59:42;;;;;;;5.65;3.97;;;;;;;7.70;100.00;92617.00;2134930;27;20084;-69
2022/09/16 01:00:43;;;;;;;6.60;3.90;;;;;;;7.69;100.00;92607.53;2135239;27;20125;-68
2022/09/16 01:01:45;;;;;;;9.85;3.85;;;;;;;7.66;100.00;92613.66;2135220;27;20030;-69
2022/09/16 01:02:48;;;;;;;7.65;4.00;;;;;;;7.70;100.00;92604.44;2134923;27;20041;-68
2022/09/16 01:03:54;;;;;;;5.97;3.80;;;;;;;7.66;100.00;92609.09;2135026;27;20033;-68
2022/09/16 01:05:06;;;;;;;6.80;4.10;;;;;;;7.69;100.00;92600.31;2135015;27;20128;-68
2022/09/16 01:06:08;;;;;;;7.03;3.78;;;;;;;7.74;100.00;92609.72;2134952;27;20101;-68
2022/09/16 01:07:10;;;;;;;6.15;4.53;;;;;;;7.74;100.00;92599.06;2135079;27;20027;-68
2022/09/16 01:08:11;;;;;;;5.78;3.92;;;;;;;7.73;100.00;92600.97;2125669;27;20106;-69
2022/09/16 01:09:12;;;;;;;6.07;4.15;;;;;;;7.72;100.00;92598.72;2124717;27;20043;-68
2022/09/16 01:10:20;;;;;;;6.43;4.35;;;;;;;7.58;100.00;92603.16;2135244;27;20033;-69
2022/09/16 01:11:21;;;;;;;6.43;4.30;;;;;;;7.61;100.00;92601.59;2134921;27;20031;-71
2022/09/16 01:12:22;;;;;;;5.20;4.00;;;;;;;7.64;100.00;92602.66;2135157;27;20029;-70
2022/09/16 01:13:23;;;;;;;7.57;4.22;;;;;;;7.63;100.00;92606.50;2134978;27;20037;-70
2022/09/16 01:16:04;;;;;;;6.35;3.67;;;;;;;7.67;100.00;92605.25;2134965;27;20026;-69
2022/09/16 01:17:40;;;;;;;4.45;4.05;;;;;;;7.64;100.00;92606.09;2134893;27;20030;-69
2022/09/16 01:18:49;;;;;;;4.13;3.80;;;;;;;7.65;100.00;92610.25;2134194;27;20034;-70
2022/09/16 01:20:09;;;;;;;4.10;3.70;;;;;;;7.65;100.00;92607.59;2134610;27;20820;-68
2022/09/16 01:21:43;;;;;;;5.25;3.55;;;;;;;7.70;100.00;92606.38;2135093;27;20026;-68
2022/09/16 01:22:58;;;;;;;4.32;3.33;;;;;;;7.58;100.00;92605.06;2134843;27;20038;-68
2022/09/16 01:24:17;;;;;;;4.47;3.70;;;;;;;7.66;100.00;92608.34;2135035;27;20720;-68
2022/09/16 01:25:39;;;;;;;8.20;3.47;;;;;;;7.64;100.00;92608.00;2134892;27;20071;-70
2022/09/16 01:27:11;;;;;;;3.97;3.58;;;;;;;7.66;100.00;92595.78;2135013;27;20027;-68
2022/09/16 01:28:39;;;;;;;3.88;3.58;;;;;;;7.67;100.00;92599.94;2135003;27;20026;-68
2022/09/16 01:30:05;;;;;;;4.75;3.67;;;;;;;7.74;100.00;92591.84;2097917;27;20033;-68
2022/09/16 01:31:19;;;;;;;5.55;3.67;;;;;;;7.76;100.00;92589.50;2134832;27;20037;-68
2022/09/16 01:32:48;;;;;;;4.53;3.45;;;;;;;7.83;100.00;92597.34;2134662;27;20030;-67
2022/09/16 01:33:55;;;;;;;3.95;3.65;;;;;;;7.86;100.00;92597.69;2135018;27;20074;-70
2022/09/16 01:35:28;;;;;;;4.57;3.78;;;;;;;7.75;100.00;92589.94;2135694;27;20693;-69
2022/09/16 01:36:52;;;;;;;5.78;3.88;;;;;;;7.78;100.00;92594.44;2135101;27;20030;-70
2022/09/16 01:38:09;;;;;;;6.38;3.60;;;;;;;7.80;100.00;92592.09;2134859;27;20034;-68
2022/09/16 01:39:48;;;;;;;3.83;3.40;;;;;;;7.76;100.00;92596.75;2134905;27;20058;-69
2022/09/16 01:40:58;;;;;;;4.50;3.75;;;;;;;7.80;100.00;92589.44;2133150;27;20030;-70
2022/09/16 01:42:19;;;;;;;4.63;3.83;;;;;;;7.83;100.00;92599.28;2134839;27;20035;-68
2022/09/16 01:43:45;;;;;;;9.13;4.13;;;;;;;7.73;100.00;92593.00;2134895;27;20030;-68
2022/09/16 01:44:51;;;;;;;9.48;4.40;;;;;;;7.62;100.00;92603.09;2134861;27;20097;-68
2022/09/16 01:46:02;;;;;;;5.13;4.07;;;;;;;7.71;100.00;92594.56;2134394;27;20034;-69
2022/09/16 01:47:21;;;;;;;8.32;4.22;;;;;;;7.63;100.00;92601.16;2119893;27;20182;-69
2022/09/16 01:48:42;;;;;;;3.92;3.63;;;;;;;7.71;100.00;92605.94;2122531;27;20483;-68
2022/09/16 01:50:15;;;;;;;5.80;4.00;;;;;;;7.77;100.00;92592.91;2134789;27;20037;-68
2022/09/16 01:51:33;;;;;;;4.25;3.85;;;;;;;7.83;100.00;92596.59;2133668;27;20033;-67
2022/09/16 01:53:11;;;;;;;4.13;3.80;;;;;;;7.92;100.00;92590.72;2134899;27;20071;-69
2022/09/16 01:54:24;;;;;;;4.63;4.20;;;;;;;7.90;100.00;92598.38;2134460;27;20450;-68
2022/09/16 01:55:44;;;;;;;7.38;4.18;;;;;;;7.93;100.00;92584.25;2125262;27;20026;-68
2022/09/16 01:56:57;;;;;;;4.03;3.63;;;;;;;7.95;100.00;92589.91;2126604;27;20051;-68
2022/09/16 01:58:08;;;;;;;5.78;3.78;;;;;;;7.92;100.00;92594.16;2134481;27;20509;-70
2022/09/16 01:59:22;;;;;;;5.85;4.05;;;;;;;7.92;100.00;92591.47;2125503;27;20026;-67
2022/09/16 02:00:23;;;;;;;6.80;3.70;;;;;;;7.89;100.00;92584.31;2128849;27;20031;-70
2022/09/16 02:01:31;;;;;;;7.30;4.15;;;;;;;7.91;100.00;92589.25;2133557;27;20380;-69
2022/09/16 02:02:48;;;;;;;7.88;4.25;;;;;;;7.89;100.00;92586.97;2134532;27;20034;-68
2022/09/16 02:03:56;;;;;;;4.18;3.78;;;;;;;7.95;100.00;92585.34;2134636;27;20053;-68
2022/09/16 02:05:02;;;;;;;5.28;3.88;;;;;;;8.02;100.00;92584.44;2134621;27;20448;-68
2022/09/16 02:06:10;;;;;;;4.18;3.78;;;;;;;8.05;100.00;92575.63;2134657;27;20026;-70
2022/09/16 02:07:15;;;;;;;5.88;4.15;;;;;;;8.08;100.00;92588.88;2134505;27;20031;-68
2022/09/16 02:08:25;;;;;;;6.82;4.03;;;;;;;8.08;100.00;92582.81;2134459;27;20105;-68
2022/09/16 02:09:32;;;;;;;5.18;4.68;;;;;;;8.10;100.00;92585.78;2134542;27;20030;-68
2022/09/16 02:10:43;;;;;;;5.00;4.50;;;;;;;8.06;100.00;92585.13;2134757;27;20364;-70
2022/09/16 02:11:48;;;;;;;7.53;4.95;;;;;;;8.12;100.00;92585.38;2134386;27;20108;-68
2022/09/16 02:12:53;;;;;;;5.90;5.00;;;;;;;8.12;100.00;92593.34;2134227;27;20022;-69
2022/09/16 02:15:31;;;;;;;;;;;;;;;8.21;100.00;92583.66;2144136;27;21066;-66
2022/09/16 02:16:42;;;;;;;8.45;5.32;;;;;;;8.21;100.00;92596.97;2137643;27;19925;-66
2022/09/16 02:17:46;;;;;;;;;;;;;;;8.28;100.00;92588.06;2134110;27;20427;-67
2022/09/16 02:18:53;;;;;;;5.63;5.13;;;;;;;8.28;100.00;92590.72;2136816;27;20006;-66
2022/09/16 02:20:00;;;;;;;6.07;4.97;;;;;;;8.29;100.00;92582.31;2137697;27;20023;-71
2022/09/16 02:21:05;;;;;;;6.10;5.30;;;;;;;8.28;100.00;92582.75;2128515;27;20109;-66
2022/09/16 02:22:12;;;;;;;5.90;5.40;;;;;;;8.25;100.00;92576.34;2128684;27;20030;-69
2022/09/16 02:23:24;;;;;;;5.90;5.30;;;;;;;8.23;100.00;92586.66;2132829;27;20054;-69
2022/09/16 02:24:28;;;;;;;6.78;5.20;;;;;;;8.19;100.00;92582.56;2137490;27;20022;-65
2022/09/16 02:25:33;;;;;;;6.30;5.03;;;;;;;8.25;100.00;92584.34;2137575;27;20045;-66
2022/09/16 02:26:39;;;;;;;13.10;5.80;;;;;;;8.28;100.00;92574.75;2137544;27;20109;-68
2022/09/16 02:27:43;;;;;;;6.88;5.03;;;;;;;8.25;100.00;92579.03;2137354;27;20405;-66
2022/09/16 02:28:47;;;;;;;5.70;5.20;;;;;;;8.38;100.00;92570.38;2133312;27;20038;-69
2022/09/16 02:29:54;;;;;;;5.78;5.18;;;;;;;8.35;100.00;92577.28;2134226;27;20034;-69
2022/09/16 02:30:58;;;;;;;5.57;5.07;;;;;;;8.40;100.00;92578.72;2137556;27;20042;-68
2022/09/16 02:32:04;;;;;;;7.15;5.47;;;;;;;8.36;100.00;92578.78;2137537;27;20027;-69
2022/09/16 02:33:09;;;;;;;6.18;4.82;;;;;;;8.37;100.00;92572.31;2137243;27;20030;-68
2022/09/16 02:34:15;;;;;;;7.80;5.15;;;;;;;8.37;100.00;92566.97;2137255;27;20030;-66
2022/09/16 02:35:19;;;;;;;7.25;5.07;;;;;;;8.34;100.00;92573.13;2133590;27;20041;-67
2022/09/16 02:36:23;;;;;;;10.27;5.30;;;;;;;8.35;100.00;92563.97;2137286;27;20056;-67
2022/09/16 02:37:29;;;;;;;5.63;5.05;;;;;;;8.30;100.00;92567.13;2137423;27;20030;-70
2022/09/16 02:38:40;;;;;;;7.32;4.90;;;;;;;8.35;100.00;92566.63;2137282;27;20030;-69
2022/09/16 02:39:45;;;;;;;8.73;5.30;;;;;;;8.40;100.00;92568.81;2136877;27;20033;-66
2022/09/16 02:40:56;;;;;;;9.70;5.13;;;;;;;8.47;100.00;92568.66;2133698;27;20147;-70
2022/09/16 02:41:59;;;;;;;8.13;4.80;;;;;;;8.52;100.00;92570.84;2137694;27;20038;-66
2022/09/16 02:43:01;;;;;;;6.57;4.80;;;;;;;8.49;100.00;92568.25;2137153;27;20026;-66
2022/09/16 02:44:02;;;;;;;7.32;5.45;;;;;;;8.52;100.00;92575.41;2137532;27;20552;-67
2022/09/16 02:45:04;;;;;;;7.45;5.57;;;;;;;8.51;100.00;92569.31;2135560;27;20062;-68
2022/09/16 02:46:29;;;;;;;8.40;5.38;;;;;;;8.49;100.00;92565.59;2136672;27;20543;-69
2022/09/16 02:47:46;;;;;;;6.38;5.78;;;;;;;8.45;100.00;92570.25;2135337;27;20041;-69
2022/09/16 02:49:17;;;;;;;8.38;6.47;;;;;;;8.54;100.00;92565.81;2133579;27;20084;-66
2022/09/16 02:50:28;;;;;;;6.10;5.50;;;;;;;8.57;100.00;92565.00;2133471;27;20034;-69
2022/09/16 02:51:41;;;;;;;8.88;6.55;;;;;;;8.53;100.00;92566.25;2137298;27;20060;-69
2022/09/16 02:52:48;;;;;;;7.00;6.18;;;;;;;8.57;100.00;92574.91;2133073;27;20032;-67
2022/09/16 02:53:58;;;;;;;8.50;6.38;;;;;;;8.52;100.00;92565.50;2137061;27;20026;-66
2022/09/16 02:55:11;;;;;;;10.07;7.05;;;;;;;8.49;100.00;92563.66;2137149;27;20076;-68
2022/09/16 02:56:21;;;;;;;8.43;6.32;;;;;;;8.48;100.00;92570.16;2132315;27;20030;-68
2022/09/16 02:57:22;;;;;;;8.20;5.80;;;;;;;8.53;100.00;92569.66;2136554;27;20045;-70
2022/09/16 02:58:23;;;;;;;6.97;6.05;;;;;;;8.51;100.00;92563.97;2137104;27;20057;-69
2022/09/16 02:59:24;;;;;;;8.40;6.45;;;;;;;8.48;100.00;92561.44;2137165;27;20448;-67
2022/09/16 03:00:28;;;;;;;7.07;6.35;;;;;;;8.48;100.00;92562.16;2137389;27;20075;-69
2022/09/16 03:01:32;;;;;;;8.90;5.93;;;;;;;8.52;100.00;92560.19;2136558;27;20022;-66
2022/09/16 03:02:34;;;;;;;7.78;5.97;;;;;;;8.53;100.00;92567.00;2137469;27;20119;-67
2022/09/16 03:03:35;;;;;;;9.70;6.93;;;;;;;8.52;100.00;92554.09;2137442;27;20082;-66
2022/09/16 03:04:37;;;;;;;7.15;6.32;;;;;;;8.66;100.00;92556.44;2136734;27;20029;-66
2022/09/16 03:05:57;;;;;;;10.48;6.55;;;;;;;8.65;100.00;92559.50;2137253;27;20109;-68
2022/09/16 03:06:58;;;;;;;7.70;5.93;;;;;;;8.57;100.00;92557.00;2126119;27;20035;-66
2022/09/16 03:08:02;;;;;;;11.05;6.43;;;;;;;8.64;100.00;92558.75;2127943;27;20031;-67
2022/09/16 03:09:07;;;;;;;10.85;6.55;;;;;;;8.68;100.00;92550.69;2136979;27;20034;-69
2022/09/16 03:10:10;;;;;;;7.07;6.22;;;;;;;8.68;100.00;92550.69;2137181;27;20021;-71
2022/09/16 03:11:26;;;;;;;7.72;6.07;;;;;;;8.68;100.00;92562.09;2137024;27;20042;-66
2022/09/16 03:12:45;;;;;;;12.93;6.28;;;;;;;8.73;100.00;92563.50;2135075;27;20471;-71
2022/09/16 03:14:19;;;;;;;10.10;6.35;;;;;;;8.71;100.00;92563.16;2133452;27;20113;-68
2022/09/16 03:15:30;;;;;;;6.40;5.57;;;;;;;8.76;100.00;92562.66;2133701;27;20038;-66
2022/09/16 03:16:37;;;;;;;7.78;5.72;;;;;;;8.78;100.00;92555.75;2127414;27;20084;-69
2022/09/16 03:18:07;;;;;;;10.43;6.03;;;;;;;8.79;100.00;92551.94;2128362;27;20031;-70
2022/09/16 03:19:27;;;;;;;;;;;;;;;8.78;100.00;92555.00;2137773;27;20026;-66
2022/09/16 03:20:40;;;;;;;17.35;6.28;;;;;;;8.76;100.00;92552.00;2134829;27;20305;-70
2022/09/16 03:21:50;;;;;;;12.40;5.88;;;;;;;8.80;100.00;92550.75;2137087;27;20464;-68
2022/09/16 03:23:09;;;;;;;6.90;6.20;;;;;;;8.86;100.00;92545.66;2133988;27;20385;-70
2022/09/16 03:24:35;;;;;;;7.65;5.88;;;;;;;8.83;100.00;92549.19;2137109;27;20066;-71
2022/09/16 03:25:58;;;;;;;6.28;5.68;;;;;;;8.90;100.00;92545.59;2132000;27;20034;-68
2022/09/16 03:27:17;;;;;;;10.05;5.45;;;;;;;8.88;100.00;92546.00;2128081;27;20087;-69
2022/09/16 03:28:24;;;;;;;7.43;5.60;;;;;;;8.89;100.00;92544.84;2128038;27;20092;-68
2022/09/16 03:29:29;;;;;;;9.40;6.45;;;;;;;8.91;100.00;92541.75;2131244;27;20410;-69
2022/09/16 03:30:34;;;;;;;8.50;6.88;;;;;;;8.85;100.00;92540.75;2131033;27;20018;-69
2022/09/16 03:31:44;;;;;;;9.02;6.45;;;;;;;8.85;100.00;92541.50;2131230;27;20114;-68
2022/09/16 03:32:55;;;;;;;8.88;6.35;;;;;;;8.95;100.00;92540.47;2127504;27;20027;-71
2022/09/16 03:34:19;;;;;;;7.63;5.78;;;;;;;8.90;100.00;92538.31;2131311;27;20034;-68
2022/09/16 03:35:28;;;;;;;9.52;6.25;;;;;;;8.90;100.00;92535.66;2118595;27;20023;-67
2022/09/16 03:36:34;;;;;;;7.93;6.65;;;;;;;8.92;100.00;92528.00;2123453;27;20027;-70
2022/09/16 03:37:38;;;;;;;7.88;6.15;;;;;;;8.88;100.00;92535.34;2131253;27;20034;-71
2022/09/16 03:38:40;;;;;;;8.20;6.28;;;;;;;8.93;100.00;92534.09;2130756;27;20026;-69
2022/09/16 03:39:46;;;;;;;8.73;6.63;;;;;;;8.93;100.00;92526.09;2131403;27;20027;-69
2022/09/16 03:40:48;;;;;;;8.13;6.32;;;;;;;8.92;100.00;92527.28;2127354;27;20524;-69
2022/09/16 03:41:50;;;;;;;12.73;6.82;;;;;;;8.89;100.00;92528.84;2131222;27;20022;-71
2022/09/16 03:42:51;;;;;;;7.45;6.72;;;;;;;8.84;100.00;92524.03;2131184;27;20023;-69
2022/09/16 03:43:54;;;;;;;16.33;6.65;;;;;;;8.78;100.00;92523.78;2130635;27;20475;-71
2022/09/16 03:44:55;;;;;;;7.28;6.57;;;;;;;8.82;100.00;92526.34;2131240;27;20041;-68
2022/09/16 03:45:57;;;;;;;8.43;6.20;;;;;;;8.82;100.00;92519.13;2130958;27;20115;-68
2022/09/16 03:46:58;;;;;;;8.30;6.38;;;;;;;8.85;100.00;92517.53;2121830;27;20035;-70
2022/09/16 03:47:58;;;;;;;8.05;6.70;;;;;;;8.89;100.00;92520.84;2121846;27;20023;-68
2022/09/16 03:49:00;;;;;;;10.40;6.60;;;;;;;8.89;100.00;92520.09;2130544;27;20376;-70
2022/09/16 03:50:01;;;;;;;14.40;6.50;;;;;;;8.89;100.00;92517.44;2131019;27;20031;-69
2022/09/16 03:51:02;;;;;;;6.63;6.03;;;;;;;8.93;100.00;92523.44;2130968;27;20031;-68
2022/09/16 03:52:07;;;;;;;6.72;6.07;;;;;;;8.91;100.00;92521.19;2121737;27;20365;-69
2022/09/16 03:53:08;;;;;;;13.85;6.90;;;;;;;8.97;100.00;92527.50;2122273;27;20030;-68
2022/09/16 03:54:09;;;;;;;7.68;6.88;;;;;;;8.98;100.00;92518.34;2130486;27;20050;-70
2022/09/16 03:55:10;;;;;;;11.98;7.40;;;;;;;8.99;100.00;92519.81;2121697;27;20426;-68
2022/09/16 03:56:11;;;;;;;10.35;6.65;;;;;;;9.04;100.00;92514.00;2121665;27;20027;-68
2022/09/16 03:57:12;;;;;;;11.27;6.82;;;;;;;9.07;100.00;92520.41;2131191;27;20061;-68
2022/09/16 03:58:13;;;;;;;8.20;6.22;;;;;;;9.07;100.00;92517.72;2131013;27;20104;-68
2022/09/16 03:59:13;;;;;;;7.15;6.45;;;;;;;9.18;100.00;92520.13;2121184;27;20031;-68
2022/09/16 04:00:14;;;;;;;7.88;6.10;;;;;;;9.11;100.00;92520.31;2122104;27;20031;-68
2022/09/16 04:01:15;;;;;;;9.82;6.45;;;;;;;9.10;100.00;92522.22;2130739;27;20087;-69
2022/09/16 04:02:16;;;;;;;9.93;6.57;;;;;;;9.06;100.00;92527.66;2130875;27;20467;-67
2022/09/16 04:03:17;;;;;;;8.13;6.65;;;;;;;9.22;100.00;92523.44;2131188;27;20071;-68
2022/09/16 04:04:18;;;;;;;9.80;6.22;;;;;;;9.15;100.00;92523.63;2130135;27;20071;-68
2022/09/16 04:05:19;;;;;;;8.50;6.47;;;;;;;9.12;100.00;92521.81;2131122;27;20042;-69
2022/09/16 04:06:20;;;;;;;7.93;6.40;;;;;;;9.11;100.00;92529.06;2130891;27;20026;-69
2022/09/16 04:07:21;;;;;;;6.95;6.25;;;;;;;9.05;100.00;92520.81;2130839;27;20808;-69
2022/09/16 04:08:22;;;;;;;11.05;7.13;;;;;;;9.05;100.00;92526.16;2131252;27;20464;-68
2022/09/16 04:09:23;;;;;;;9.00;6.57;;;;;;;9.08;100.00;92522.63;2121785;27;20471;-70
2022/09/16 04:10:24;;;;;;;8.57;6.47;;;;;;;9.06;100.00;92521.56;2121266;27;20030;-71
2022/09/16 04:11:28;;;;;;;10.55;6.47;;;;;;;9.07;100.00;92518.47;2130853;27;20042;-69
2022/09/16 04:12:29;;;;;;;8.07;6.10;;;;;;;9.11;100.00;92525.63;2130339;27;20487;-69
2022/09/16 04:13:34;;;;;;;7.05;6.18;;;;;;;9.14;100.00;92522.88;2130811;27;20033;-68
2022/09/16 04:14:35;;;;;;;10.38;6.90;;;;;;;9.16;100.00;92520.53;2130241;27;20065;-69
2022/09/16 04:15:37;;;;;;;7.47;6.53;;;;;;;9.18;100.00;92526.22;2113838;27;20413;-69
2022/09/16 04:16:38;;;;;;;9.38;6.60;;;;;;;9.14;100.00;92522.88;2121348;27;20722;-69
2022/09/16 04:17:39;;;;;;;7.50;6.80;;;;;;;9.13;100.00;92518.72;2121659;27;20062;-70
2022/09/16 04:18:41;;;;;;;7.82;5.72;;;;;;;9.10;100.00;92518.81;2121782;27;20539;-68
2022/09/16 04:19:42;;;;;;;8.80;7.00;;;;;;;9.06;100.00;92516.97;2125934;27;20593;-68
2022/09/16 04:20:43;;;;;;;8.02;6.32;;;;;;;9.01;100.00;92516.75;2130109;27;20027;-70
2022/09/16 04:21:44;;;;;;;6.68;5.80;;;;;;;9.13;100.00;92521.41;2121640;27;20475;-70
2022/09/16 04:22:44;;;;;;;9.82;6.20;;;;;;;9.10;100.00;92521.47;2121406;27;20059;-70
2022/09/16 04:23:45;;;;;;;10.77;6.25;;;;;;;9.11;100.00;92512.31;2130750;27;20045;-69
2022/09/16 04:24:46;;;;;;;8.27;6.45;;;;;;;9.06;100.00;92510.91;2130810;27;20034;-70
2022/09/16 04:25:55;;;;;;;6.85;6.25;;;;;;;9.09;100.00;92512.75;2129618;27;20031;-69
2022/09/16 04:26:56;;;;;;;6.93;5.80;;;;;;;9.08;100.00;92514.63;2130837;27;20031;-70
2022/09/16 04:27:56;;;;;;;9.75;6.20;;;;;;;9.08;100.00;92511.97;2130570;27;20034;-71
2022/09/16 04:28:57;;;;;;;6.55;5.75;;;;;;;9.10;100.00;92513.50;2130869;27;20035;-68
2022/09/16 04:29:58;;;;;;;8.65;6.25;;;;;;;9.10;100.00;92508.91;2130821;27;20061;-68
2022/09/16 04:31:20;;;;;;;6.80;6.10;;;;;;;9.14;100.00;92514.91;2129947;27;20357;-70
2022/09/16 04:32:21;;;;;;;7.47;6.15;;;;;;;9.17;100.00;92507.94;2128063;27;20308;-68
2022/09/16 04:33:22;;;;;;;8.35;5.82;;;;;;;9.18;100.00;92504.88;2129891;27;20031;-70
2022/09/16 04:34:23;;;;;;;9.10;6.47;;;;;;;9.20;100.00;92504.44;2129974;27;20373;-68
2022/09/16 04:35:24;;;;;;;10.60;6.88;;;;;;;9.18;100.00;92512.88;2130036;27;20105;-68
2022/09/16 04:36:25;;;;;;;9.27;6.22;;;;;;;9.19;100.00;92514.38;2120440;27;20043;-68
2022/09/16 04:37:29;;;;;;;6.82;6.13;;;;;;;9.14;100.00;92514.91;2118160;27;20610;-67
2022/09/16 04:38:30;;;;;;;10.90;5.97;;;;;;;9.16;100.00;92504.53;2128905;27;20018;-69
2022/09/16 04:39:31;;;;;;;7.00;6.07;;;;;;;9.17;100.00;92508.69;2130038;27;20083;-68
2022/09/16 04:40:32;;;;;;;7.13;6.43;;;;;;;9.19;100.00;92510.97;2119795;27;20036;-69
2022/09/16 04:41:33;;;;;;;9.25;6.20;;;;;;;9.15;100.00;92510.31;2119450;27;20063;-69
2022/09/16 04:42:34;;;;;;;6.03;5.53;;;;;;;9.13;100.00;92505.41;2130277;27;20083;-69
2022/09/16 04:43:35;;;;;;;12.98;6.55;;;;;;;9.16;100.00;92501.13;2129683;27;20402;-70
2022/09/16 04:44:36;;;;;;;9.90;6.72;;;;;;;9.17;100.00;92495.38;2129990;27;20103;-68
2022/09/16 04:45:37;;;;;;;8.35;6.22;;;;;;;9.17;100.00;92510.63;2129446;27;20075;-69
2022/09/16 04:46:38;;;;;;;6.40;5.80;;;;;;;9.14;100.00;92506.16;2128003;27;20023;-69
2022/09/16 04:47:39;;;;;;;6.82;6.13;;;;;;;9.19;100.00;92509.03;2130133;27;20050;-70
2022/09/16 04:48:40;;;;;;;9.25;6.25;;;;;;;9.20;100.00;92512.44;2128625;27;20446;-69
2022/09/16 04:49:41;;;;;;;6.63;5.93;;;;;;;9.22;100.00;92512.75;2129905;27;20031;-69
2022/09/16 04:50:42;;;;;;;9.43;6.15;;;;;;;9.23;100.00;92511.63;2119544;27;20051;-69
2022/09/16 04:51:43;;;;;;;15.38;6.88;;;;;;;9.19;100.00;92508.28;2119136;27;20068;-68
2022/09/16 04:52:44;;;;;;;13.02;6.90;;;;;;;9.21;100.00;92511.28;2129922;27;20069;-69
2022/09/16 04:53:45;;;;;;;8.90;6.90;;;;;;;9.17;100.00;92506.03;2129818;27;20034;-68
2022/09/16 04:54:46;;;;;;;6.72;6.03;;;;;;;9.18;100.00;92512.88;2129969;27;20479;-68
2022/09/16 04:55:48;;;;;;;7.32;6.18;;;;;;;9.22;100.00;92510.88;2130022;27;20037;-69
2022/09/16 04:56:49;;;;;;;7.70;6.50;;;;;;;9.27;100.00;92510.34;2129492;27;20027;-68
2022/09/16 04:57:49;;;;;;;7.18;6.43;;;;;;;9.27;100.00;92512.28;2130151;27;20026;-68
2022/09/16 04:58:53;;;;;;;8.85;6.32;;;;;;;9.26;100.00;92502.75;2129684;27;20056;-70
2022/09/16 04:59:54;;;;;;;6.40;5.82;;;;;;;9.30;100.00;92498.06;2121069;27;20441;-69
2022/09/16 05:00:55;;;;;;;8.50;6.30;;;;;;;9.30;100.00;92493.50;2120979;27;20097;-68
2022/09/16 05:01:56;;;;;;;8.40;5.72;;;;;;;9.30;100.00;92498.81;2130001;27;20108;-68
2022/09/16 05:02:57;;;;;;;10.02;6.18;;;;;;;9.31;100.00;92496.94;2129262;27;20187;-68
2022/09/16 05:04:01;;;;;;;8.95;6.10;;;;;;;9.33;100.00;92495.31;2130428;27;20022;-70
2022/09/16 05:05:02;;;;;;;7.75;6.80;;;;;;;9.39;100.00;92492.88;2130301;27;20384;-68
2022/09/16 05:06:05;;;;;;;9.30;7.38;;;;;;;9.40;100.00;92498.97;2130535;27;20031;-68
2022/09/16 05:07:07;;;;;;;8.27;6.85;;;;;;;9.34;100.00;92501.41;2130553;27;20079;-67
2022/09/16 05:08:07;;;;;;;7.97;7.18;;;;;;;9.33;100.00;92503.31;2120494;27;20031;-70
2022/09/16 05:09:10;;;;;;;11.73;5.90;;;;;;;9.41;100.00;92493.22;2121259;27;20038;-71
2022/09/16 05:10:11;;;;;;;6.45;5.38;;;;;;;9.41;100.00;92498.53;2121085;27;20114;-72
2022/09/16 05:11:15;;;;;;;8.30;5.80;;;;;;;9.42;100.00;92497.38;2117095;27;20027;-70
2022/09/16 05:12:16;;;;;;;6.45;5.85;;;;;;;9.42;100.00;92496.63;2130435;27;20023;-69
2022/09/16 05:13:16;;;;;;;5.97;5.35;;;;;;;9.40;100.00;92502.41;2129858;27;20561;-68
2022/09/16 05:14:17;;;;;;;7.00;5.60;;;;;;;9.44;100.00;92492.38;2121207;27;20038;-67
2022/09/16 05:15:19;;;;;;;7.90;5.60;;;;;;;9.38;100.00;92496.72;2120657;27;20545;-68
2022/09/16 05:16:21;;;;;;;6.43;5.60;;;;;;;9.44;100.00;92489.72;2130602;27;20464;-70